sensor_id;sensor_type;location;lat;lon;timestamp;pressure;altitude;pressure_sealevel;temperature;humidity
43681;BME280;29281;50.356;30.894;2023-06-22T00:00:13;100352.47;;;22.45;79.27
43681;BME280;29281;50.356;30.894;2023-06-22T00:01:18;100353.66;;;22.43;78.37
43681;BME280;29281;50.356;30.894;2023-06-22T00:02:24;100350.11;;;22.42;78.47
43681;BME280;29281;50.356;30.894;2023-06-22T00:03:28;100350.90;;;22.51;78.76
43681;BME280;29281;50.356;30.894;2023-06-22T00:04:31;100354.59;;;22.58;77.10
43681;BME280;29281;50.356;30.894;2023-06-22T00:05:34;100359.52;;;22.55;75.74
43681;BME280;29281;50.356;30.894;2023-06-22T00:06:38;100356.28;;;22.59;76.11
43681;BME280;29281;50.356;30.894;2023-06-22T00:07:42;100358.32;;;22.57;78.01
43681;BME280;29281;50.356;30.894;2023-06-22T00:08:48;100359.02;;;22.51;77.41
43681;BME280;29281;50.356;30.894;2023-06-22T00:09:51;100357.33;;;22.50;76.78
43681;BME280;29281;50.356;30.894;2023-06-22T00:10:55;100365.59;;;22.57;76.76
43681;BME280;29281;50.356;30.894;2023-06-22T00:11:59;100360.19;;;22.57;75.87
43681;BME280;29281;50.356;30.894;2023-06-22T00:13:03;100361.88;;;22.58;75.47
43681;BME280;29281;50.356;30.894;2023-06-22T00:14:07;100361.38;;;22.54;75.95
43681;BME280;29281;50.356;30.894;2023-06-22T00:15:10;100360.53;;;22.54;76.10
43681;BME280;29281;50.356;30.894;2023-06-22T00:16:13;100362.56;;;22.52;75.84
43681;BME280;29281;50.356;30.894;2023-06-22T00:17:18;100360.70;;;22.52;77.65
43681;BME280;29281;50.356;30.894;2023-06-22T00:18:22;100364.61;;;22.50;76.17
43681;BME280;29281;50.356;30.894;2023-06-22T00:19:35;100365.89;;;22.62;76.18
43681;BME280;29281;50.356;30.894;2023-06-22T00:20:42;100370.69;;;22.52;76.25
43681;BME280;29281;50.356;30.894;2023-06-22T00:21:52;100369.00;;;22.51;77.01
43681;BME280;29281;50.356;30.894;2023-06-22T00:22:59;100362.25;;;22.46;79.55
43681;BME280;29281;50.356;30.894;2023-06-22T00:24:10;100356.55;;;22.41;80.13
43681;BME280;29281;50.356;30.894;2023-06-22T00:25:13;100353.17;;;22.39;79.33
43681;BME280;29281;50.356;30.894;2023-06-22T00:26:17;100359.09;;;22.35;78.33
43681;BME280;29281;50.356;30.894;2023-06-22T00:27:21;100358.92;;;22.36;77.61
43681;BME280;29281;50.356;30.894;2023-06-22T00:28:25;100354.85;;;22.40;77.16
43681;BME280;29281;50.356;30.894;2023-06-22T00:29:29;100360.09;;;22.42;77.28
43681;BME280;29281;50.356;30.894;2023-06-22T00:30:33;100358.41;;;22.41;77.21
43681;BME280;29281;50.356;30.894;2023-06-22T00:31:37;100357.39;;;22.42;77.65
43681;BME280;29281;50.356;30.894;2023-06-22T00:32:41;100361.78;;;22.43;77.27
43681;BME280;29281;50.356;30.894;2023-06-22T00:33:44;100361.28;;;22.39;77.70
43681;BME280;29281;50.356;30.894;2023-06-22T00:34:48;100357.73;;;22.39;77.42
43681;BME280;29281;50.356;30.894;2023-06-22T00:35:51;100360.77;;;22.44;77.34
43681;BME280;29281;50.356;30.894;2023-06-22T00:36:57;100362.08;;;22.48;76.72
43681;BME280;29281;50.356;30.894;2023-06-22T00:38:01;100355.81;;;22.48;77.48
43681;BME280;29281;50.356;30.894;2023-06-22T00:39:06;100363.41;;;22.52;77.22
43681;BME280;29281;50.356;30.894;2023-06-22T00:40:12;100363.23;;;22.54;76.93
43681;BME280;29281;50.356;30.894;2023-06-22T00:41:19;100361.73;;;22.51;76.98
43681;BME280;29281;50.356;30.894;2023-06-22T00:42:23;100362.89;;;22.57;76.54
43681;BME280;29281;50.356;30.894;2023-06-22T00:43:28;100365.59;;;22.57;76.69
43681;BME280;29281;50.356;30.894;2023-06-22T00:44:33;100368.97;;;22.59;76.74
43681;BME280;29281;50.356;30.894;2023-06-22T00:45:37;100366.96;;;22.53;77.40
43681;BME280;29281;50.356;30.894;2023-06-22T00:46:41;100359.86;;;22.52;77.10
43681;BME280;29281;50.356;30.894;2023-06-22T00:47:43;100369.52;;;22.46;77.08
43681;BME280;29281;50.356;30.894;2023-06-22T00:48:48;100367.21;;;22.35;77.61
43681;BME280;29281;50.356;30.894;2023-06-22T00:49:51;100365.18;;;22.37;77.74
43681;BME280;29281;50.356;30.894;2023-06-22T00:50:55;100361.95;;;22.41;77.36
43681;BME280;29281;50.356;30.894;2023-06-22T00:51:59;100365.01;;;22.38;78.59
43681;BME280;29281;50.356;30.894;2023-06-22T00:53:07;100360.61;;;22.37;79.49
43681;BME280;29281;50.356;30.894;2023-06-22T00:54:16;100358.92;;;22.36;78.84
43681;BME280;29281;50.356;30.894;2023-06-22T00:55:22;100365.01;;;22.38;79.25
43681;BME280;29281;50.356;30.894;2023-06-22T00:56:26;100358.25;;;22.34;79.00
43681;BME280;29281;50.356;30.894;2023-06-22T00:57:32;100358.42;;;22.33;80.03
43681;BME280;29281;50.356;30.894;2023-06-22T00:58:36;100366.71;;;22.31;79.88
43681;BME280;29281;50.356;30.894;2023-06-22T00:59:44;100359.99;;;22.27;79.70
43681;BME280;29281;50.356;30.894;2023-06-22T01:00:51;100363.72;;;22.26;80.29
43681;BME280;29281;50.356;30.894;2023-06-22T01:01:57;100369.13;;;22.26;80.06
43681;BME280;29281;50.356;30.894;2023-06-22T01:03:01;100363.61;;;22.12;80.50
43681;BME280;29281;50.356;30.894;2023-06-22T01:04:05;100363.43;;;22.13;80.50
43681;BME280;29281;50.356;30.894;2023-06-22T01:05:08;100369.69;;;22.14;80.81
43681;BME280;29281;50.356;30.894;2023-06-22T01:06:14;100368.36;;;21.93;82.37
43681;BME280;29281;50.356;30.894;2023-06-22T01:08:33;100375.84;;;21.59;84.93
43681;BME280;29281;50.356;30.894;2023-06-22T01:09:39;100371.63;;;21.56;85.35
43681;BME280;29281;50.356;30.894;2023-06-22T01:10:57;100368.09;;;21.48;85.76
43681;BME280;29281;50.356;30.894;2023-06-22T01:12:01;100372.15;;;21.44;86.11
43681;BME280;29281;50.356;30.894;2023-06-22T01:13:07;100368.61;;;21.51;86.23
43681;BME280;29281;50.356;30.894;2023-06-22T01:14:23;100374.19;;;21.50;87.01
43681;BME280;29281;50.356;30.894;2023-06-22T01:15:30;100372.66;;;21.47;87.86
43681;BME280;29281;50.356;30.894;2023-06-22T01:16:35;100385.66;;;21.44;88.69
43681;BME280;29281;50.356;30.894;2023-06-22T01:17:43;100379.75;;;21.48;89.36
43681;BME280;29281;50.356;30.894;2023-06-22T01:18:47;100376.70;;;21.43;90.14
43681;BME280;29281;50.356;30.894;2023-06-22T01:19:54;100376.88;;;21.50;90.17
43681;BME280;29281;50.356;30.894;2023-06-22T01:21:00;100374.69;;;21.45;90.70
43681;BME280;29281;50.356;30.894;2023-06-22T01:22:06;100370.14;;;21.37;91.79
43681;BME280;29281;50.356;30.894;2023-06-22T01:24:26;100374.31;;;21.16;94.68
43681;BME280;29281;50.356;30.894;2023-06-22T01:25:39;100372.95;;;21.12;95.15
43681;BME280;29281;50.356;30.894;2023-06-22T01:26:57;100375.50;;;21.05;95.75
43681;BME280;29281;50.356;30.894;2023-06-22T01:28:05;100380.38;;;21.10;95.53
43681;BME280;29281;50.356;30.894;2023-06-22T01:29:08;100375.83;;;21.02;95.94
43681;BME280;29281;50.356;30.894;2023-06-22T01:30:17;100383.77;;;21.03;95.95
43681;BME280;29281;50.356;30.894;2023-06-22T01:31:24;100378.69;;;21.08;95.68
43681;BME280;29281;50.356;30.894;2023-06-22T01:32:30;100376.34;;;21.14;95.43
43681;BME280;29281;50.356;30.894;2023-06-22T01:33:35;100375.16;;;21.16;95.19
43681;BME280;29281;50.356;30.894;2023-06-22T01:34:40;100375.70;;;21.20;95.07
43681;BME280;29281;50.356;30.894;2023-06-22T01:35:46;100378.55;;;21.18;95.35
43681;BME280;29281;50.356;30.894;2023-06-22T01:36:53;100378.55;;;21.18;95.48
43681;BME280;29281;50.356;30.894;2023-06-22T01:37:58;100380.39;;;21.18;95.91
43681;BME280;29281;50.356;30.894;2023-06-22T01:39:03;100382.91;;;21.11;96.14
43681;BME280;29281;50.356;30.894;2023-06-22T01:40:08;100376.85;;;21.17;95.44
43681;BME280;29281;50.356;30.894;2023-06-22T01:41:12;100378.08;;;21.23;94.81
43681;BME280;29281;50.356;30.894;2023-06-22T01:42:15;100381.43;;;21.25;94.72
43681;BME280;29281;50.356;30.894;2023-06-22T01:43:20;100380.78;;;21.23;94.63
43681;BME280;29281;50.356;30.894;2023-06-22T01:44:25;100381.79;;;21.22;94.88
43681;BME280;29281;50.356;30.894;2023-06-22T01:45:31;100387.66;;;21.17;95.38
43681;BME280;29281;50.356;30.894;2023-06-22T01:46:36;100382.97;;;21.19;94.71
43681;BME280;29281;50.356;30.894;2023-06-22T01:47:42;100383.12;;;21.26;94.26
43681;BME280;29281;50.356;30.894;2023-06-22T01:48:46;100392.23;;;21.25;94.68
43681;BME280;29281;50.356;30.894;2023-06-22T01:49:50;100385.14;;;21.24;94.86
43681;BME280;29281;50.356;30.894;2023-06-22T01:51:00;100382.44;;;21.24;94.46
43681;BME280;29281;50.356;30.894;2023-06-22T01:52:04;100389.53;;;21.25;94.74
43681;BME280;29281;50.356;30.894;2023-06-22T01:53:08;100386.18;;;21.23;94.94
43681;BME280;29281;50.356;30.894;2023-06-22T01:54:13;100385.82;;;21.26;94.67
43681;BME280;29281;50.356;30.894;2023-06-22T01:55:16;100390.89;;;21.29;95.09
43681;BME280;29281;50.356;30.894;2023-06-22T01:56:22;100388.70;;;21.32;93.98
43681;BME280;29281;50.356;30.894;2023-06-22T01:57:26;100387.34;;;21.28;93.81
43681;BME280;29281;50.356;30.894;2023-06-22T01:58:30;100388.88;;;21.31;93.56
43681;BME280;29281;50.356;30.894;2023-06-22T02:00:48;100396.30;;;21.29;94.37
43681;BME280;29281;50.356;30.894;2023-06-22T02:01:53;100394.61;;;21.20;94.91
43681;BME280;29281;50.356;30.894;2023-06-22T02:03:01;100392.77;;;21.20;95.26
43681;BME280;29281;50.356;30.894;2023-06-22T02:04:09;100389.88;;;21.30;95.09
43681;BME280;29281;50.356;30.894;2023-06-22T02:05:15;100390.06;;;21.36;94.38
43681;BME280;29281;50.356;30.894;2023-06-22T02:06:21;100390.05;;;21.28;95.66
43681;BME280;29281;50.356;30.894;2023-06-22T02:07:28;100390.38;;;21.41;94.78
43681;BME280;29281;50.356;30.894;2023-06-22T02:08:40;100397.48;;;21.34;95.37
43681;BME280;29281;50.356;30.894;2023-06-22T02:09:46;100393.76;;;21.27;96.62
43681;BME280;29281;50.356;30.894;2023-06-22T02:10:51;100386.50;;;21.28;96.14
43681;BME280;29281;50.356;30.894;2023-06-22T02:11:57;100386.17;;;21.31;95.62
43681;BME280;29281;50.356;30.894;2023-06-22T02:13:02;100387.53;;;21.35;95.51
43681;BME280;29281;50.356;30.894;2023-06-22T02:14:09;100393.60;;;21.21;95.58
43681;BME280;29281;50.356;30.894;2023-06-22T02:15:14;100395.46;;;21.20;96.19
43681;BME280;29281;50.356;30.894;2023-06-22T02:16:20;100396.93;;;21.15;97.01
43681;BME280;29281;50.356;30.894;2023-06-22T02:17:24;100395.92;;;21.16;96.26
43681;BME280;29281;50.356;30.894;2023-06-22T02:18:28;100390.86;;;21.04;97.69
43681;BME280;29281;50.356;30.894;2023-06-22T02:19:35;100393.88;;;21.10;97.15
43681;BME280;29281;50.356;30.894;2023-06-22T02:20:38;100393.05;;;21.17;96.77
43681;BME280;29281;50.356;30.894;2023-06-22T02:21:46;100396.81;;;21.32;95.56
43681;BME280;29281;50.356;30.894;2023-06-22T02:22:48;100390.89;;;21.45;94.16
43681;BME280;29281;50.356;30.894;2023-06-22T02:23:53;100396.63;;;21.58;93.43
43681;BME280;29281;50.356;30.894;2023-06-22T02:24:57;100393.75;;;21.60;93.35
43681;BME280;29281;50.356;30.894;2023-06-22T02:26:08;100396.13;;;21.63;93.28
43681;BME280;29281;50.356;30.894;2023-06-22T02:27:12;100386.98;;;21.72;92.06
43681;BME280;29281;50.356;30.894;2023-06-22T02:28:14;100387.48;;;21.75;92.10
43681;BME280;29281;50.356;30.894;2023-06-22T02:29:19;100389.14;;;21.85;90.96
43681;BME280;29281;50.356;30.894;2023-06-22T02:30:22;100385.77;;;21.91;90.66
43681;BME280;29281;50.356;30.894;2023-06-22T02:31:27;100389.34;;;21.99;89.85
43681;BME280;29281;50.356;30.894;2023-06-22T02:32:36;100392.85;;;22.08;89.72
43681;BME280;29281;50.356;30.894;2023-06-22T02:33:39;100387.23;;;22.18;89.05
43681;BME280;29281;50.356;30.894;2023-06-22T02:34:45;100388.36;;;22.31;88.18
43681;BME280;29281;50.356;30.894;2023-06-22T02:35:51;100394.03;;;22.53;87.23
43681;BME280;29281;50.356;30.894;2023-06-22T02:36:58;100390.08;;;22.63;86.07
43681;BME280;29281;50.356;30.894;2023-06-22T02:38:05;100394.20;;;22.90;84.82
43681;BME280;29281;50.356;30.894;2023-06-22T02:39:08;100392.02;;;23.08;83.56
43681;BME280;29281;50.356;30.894;2023-06-22T02:40:12;100396.08;;;23.35;81.49
43681;BME280;29281;50.356;30.894;2023-06-22T02:41:16;100400.64;;;23.58;79.76
43681;BME280;29281;50.356;30.894;2023-06-22T02:42:23;100395.45;;;23.48;79.92
43681;BME280;29281;50.356;30.894;2023-06-22T02:43:27;100405.50;;;23.39;80.23
43681;BME280;29281;50.356;30.894;2023-06-22T02:44:31;100395.16;;;23.66;78.63
43681;BME280;29281;50.356;30.894;2023-06-22T02:45:34;100409.42;;;23.97;76.45
43681;BME280;29281;50.356;30.894;2023-06-22T02:46:40;100407.33;;;23.84;75.56
43681;BME280;29281;50.356;30.894;2023-06-22T02:47:44;100413.56;;;23.70;75.71
43681;BME280;29281;50.356;30.894;2023-06-22T02:48:47;100407.03;;;23.65;75.51
43681;BME280;29281;50.356;30.894;2023-06-22T02:49:50;100411.30;;;23.59;75.56
43681;BME280;29281;50.356;30.894;2023-06-22T02:50:54;100409.08;;;23.63;75.37
43681;BME280;29281;50.356;30.894;2023-06-22T02:51:59;100415.86;;;23.81;74.44
43681;BME280;29281;50.356;30.894;2023-06-22T02:53:05;100409.61;;;23.96;73.70
43681;BME280;29281;50.356;30.894;2023-06-22T02:54:09;100415.67;;;23.83;73.92
43681;BME280;29281;50.356;30.894;2023-06-22T02:55:13;100407.48;;;23.68;74.51
43681;BME280;29281;50.356;30.894;2023-06-22T02:56:21;100409.08;;;23.63;74.67
43681;BME280;29281;50.356;30.894;2023-06-22T02:57:30;100409.83;;;23.71;74.43
43681;BME280;29281;50.356;30.894;2023-06-22T02:58:33;100415.46;;;23.84;74.21
43681;BME280;29281;50.356;30.894;2023-06-22T02:59:43;100421.00;;;23.91;74.53
43681;BME280;29281;50.356;30.894;2023-06-22T03:00:47;100416.30;;;23.85;74.79
43681;BME280;29281;50.356;30.894;2023-06-22T03:01:51;100405.52;;;23.62;76.23
43681;BME280;29281;50.356;30.894;2023-06-22T03:02:57;100416.81;;;23.51;77.06
43681;BME280;29281;50.356;30.894;2023-06-22T03:04:01;100411.23;;;23.44;76.90
43681;BME280;29281;50.356;30.894;2023-06-22T03:05:05;100410.56;;;23.42;76.94
43681;BME280;29281;50.356;30.894;2023-06-22T03:06:12;100412.99;;;23.60;76.37
43681;BME280;29281;50.356;30.894;2023-06-22T03:07:17;100413.69;;;23.77;75.28
43681;BME280;29281;50.356;30.894;2023-06-22T03:08:23;100404.36;;;23.94;75.14
43681;BME280;29281;50.356;30.894;2023-06-22T03:09:27;100415.27;;;24.24;73.86
43681;BME280;29281;50.356;30.894;2023-06-22T03:10:32;100413.67;;;24.44;72.79
43681;BME280;29281;50.356;30.894;2023-06-22T03:11:36;100422.02;;;24.78;70.97
43681;BME280;29281;50.356;30.894;2023-06-22T03:12:42;100423.86;;;24.93;70.34
43681;BME280;29281;50.356;30.894;2023-06-22T03:13:50;100422.77;;;24.87;69.48
43681;BME280;29281;50.356;30.894;2023-06-22T03:14:54;100419.92;;;24.59;70.54
43681;BME280;29281;50.356;30.894;2023-06-22T03:15:59;100417.86;;;24.32;71.38
43681;BME280;29281;50.356;30.894;2023-06-22T03:17:02;100419.08;;;24.29;71.78
43681;BME280;29281;50.356;30.894;2023-06-22T03:18:07;100420.98;;;24.29;72.21
43681;BME280;29281;50.356;30.894;2023-06-22T03:19:10;100421.69;;;24.23;72.08
43681;BME280;29281;50.356;30.894;2023-06-22T03:20:15;100425.12;;;24.16;72.06
43681;BME280;29281;50.356;30.894;2023-06-22T03:21:22;100421.96;;;23.98;72.29
43681;BME280;29281;50.356;30.894;2023-06-22T03:22:27;100420.16;;;23.91;73.35
43681;BME280;29281;50.356;30.894;2023-06-22T03:23:31;100420.64;;;23.94;72.67
43681;BME280;29281;50.356;30.894;2023-06-22T03:24:34;100414.01;;;23.97;72.11
43681;BME280;29281;50.356;30.894;2023-06-22T03:25:41;100418.56;;;23.81;72.68
43681;BME280;29281;50.356;30.894;2023-06-22T03:26:48;100422.19;;;23.74;73.19
43681;BME280;29281;50.356;30.894;2023-06-22T03:27:57;100417.70;;;23.66;74.72
43681;BME280;29281;50.356;30.894;2023-06-22T03:29:01;100417.33;;;23.84;74.58
43681;BME280;29281;50.356;30.894;2023-06-22T03:30:06;100417.15;;;23.85;73.30
43681;BME280;29281;50.356;30.894;2023-06-22T03:31:13;100419.86;;;23.85;73.73
43681;BME280;29281;50.356;30.894;2023-06-22T03:32:20;100421.48;;;23.95;73.83
43681;BME280;29281;50.356;30.894;2023-06-22T03:33:24;100425.30;;;24.00;73.41
43681;BME280;29281;50.356;30.894;2023-06-22T03:34:32;100422.59;;;24.00;72.67
43681;BME280;29281;50.356;30.894;2023-06-22T03:35:38;100414.93;;;24.04;72.82
43681;BME280;29281;50.356;30.894;2023-06-22T03:36:41;100421.02;;;24.20;72.92
43681;BME280;29281;50.356;30.894;2023-06-22T03:37:46;100419.92;;;24.30;71.84
43681;BME280;29281;50.356;30.894;2023-06-22T03:38:50;100424.98;;;24.33;71.11
43681;BME280;29281;50.356;30.894;2023-06-22T03:39:57;100424.14;;;24.32;71.35
43681;BME280;29281;50.356;30.894;2023-06-22T03:41:03;100427.33;;;24.36;71.09
43681;BME280;29281;50.356;30.894;2023-06-22T03:42:09;100427.80;;;24.39;71.15
43681;BME280;29281;50.356;30.894;2023-06-22T03:43:16;100421.59;;;24.45;71.54
43681;BME280;29281;50.356;30.894;2023-06-22T03:44:19;100427.69;;;24.47;71.47
43681;BME280;29281;50.356;30.894;2023-06-22T03:45:23;100425.44;;;24.51;71.26
43681;BME280;29281;50.356;30.894;2023-06-22T03:46:26;100426.16;;;24.60;70.92
43681;BME280;29281;50.356;30.894;2023-06-22T03:47:34;100428.26;;;24.58;71.05
43681;BME280;29281;50.356;30.894;2023-06-22T03:48:38;100428.72;;;24.46;71.30
43681;BME280;29281;50.356;30.894;2023-06-22T03:49:42;100428.45;;;24.56;71.01
43681;BME280;29281;50.356;30.894;2023-06-22T03:50:50;100427.60;;;24.56;71.50
43681;BME280;29281;50.356;30.894;2023-06-22T03:51:54;100426.77;;;24.40;72.49
43681;BME280;29281;50.356;30.894;2023-06-22T03:52:58;100430.03;;;24.50;72.58
43681;BME280;29281;50.356;30.894;2023-06-22T03:54:04;100426.11;;;24.38;72.16
43681;BME280;29281;50.356;30.894;2023-06-22T03:55:07;100429.19;;;24.50;71.40
43681;BME280;29281;50.356;30.894;2023-06-22T03:56:10;100428.16;;;24.51;72.07
43681;BME280;29281;50.356;30.894;2023-06-22T03:57:13;100428.53;;;24.48;72.47
43681;BME280;29281;50.356;30.894;2023-06-22T03:58:17;100421.88;;;24.50;72.74
43681;BME280;29281;50.356;30.894;2023-06-22T03:59:21;100429.28;;;24.57;70.66
43681;BME280;29281;50.356;30.894;2023-06-22T04:00:25;100430.20;;;24.64;70.58
43681;BME280;29281;50.356;30.894;2023-06-22T04:01:29;100431.04;;;24.64;71.05
43681;BME280;29281;50.356;30.894;2023-06-22T04:02:34;100420.46;;;24.69;70.37
43681;BME280;29281;50.356;30.894;2023-06-22T04:03:40;100424.55;;;24.80;70.35
43681;BME280;29281;50.356;30.894;2023-06-22T04:04:44;100434.56;;;24.94;70.88
43681;BME280;29281;50.356;30.894;2023-06-22T04:05:48;100427.91;;;24.97;69.64
43681;BME280;29281;50.356;30.894;2023-06-22T04:06:52;100432.27;;;25.12;69.10
43681;BME280;29281;50.356;30.894;2023-06-22T04:07:55;100431.75;;;25.02;68.56
43681;BME280;29281;50.356;30.894;2023-06-22T04:09:00;100430.53;;;25.05;67.81
43681;BME280;29281;50.356;30.894;2023-06-22T04:10:09;100436.02;;;25.11;66.99
43681;BME280;29281;50.356;30.894;2023-06-22T04:11:18;100442.44;;;25.25;66.20
43681;BME280;29281;50.356;30.894;2023-06-22T04:12:22;100442.56;;;25.38;65.94
43681;BME280;29281;50.356;30.894;2023-06-22T04:13:25;100439.27;;;25.43;65.80
43681;BME280;29281;50.356;30.894;2023-06-22T04:14:29;100442.56;;;25.59;65.43
43681;BME280;29281;50.356;30.894;2023-06-22T04:15:32;100438.27;;;25.65;67.04
43681;BME280;29281;50.356;30.894;2023-06-22T04:16:35;100441.48;;;25.75;66.79
43681;BME280;29281;50.356;30.894;2023-06-22T04:17:40;100448.22;;;25.79;67.25
43681;BME280;29281;50.356;30.894;2023-06-22T04:18:43;100453.01;;;25.77;65.15
43681;BME280;29281;50.356;30.894;2023-06-22T04:19:47;100455.38;;;25.87;64.58
43681;BME280;29281;50.356;30.894;2023-06-22T04:20:49;100456.48;;;25.92;63.61
43681;BME280;29281;50.356;30.894;2023-06-22T04:21:53;100454.41;;;25.95;64.41
43681;BME280;29281;50.356;30.894;2023-06-22T04:22:56;100454.63;;;26.00;64.71
43681;BME280;29281;50.356;30.894;2023-06-22T04:24:01;100457.61;;;26.05;66.02
43681;BME280;29281;50.356;30.894;2023-06-22T04:25:05;100448.86;;;26.09;66.19
43681;BME280;29281;50.356;30.894;2023-06-22T04:26:11;100456.83;;;26.11;65.75
43681;BME280;29281;50.356;30.894;2023-06-22T04:27:15;100458.16;;;26.21;64.72
43681;BME280;29281;50.356;30.894;2023-06-22T04:28:18;100473.05;;;26.25;63.35
43681;BME280;29281;50.356;30.894;2023-06-22T04:29:24;100451.53;;;26.31;64.08
43681;BME280;29281;50.356;30.894;2023-06-22T04:30:28;100466.26;;;26.15;63.10
43681;BME280;29281;50.356;30.894;2023-06-22T04:31:34;100466.77;;;26.25;63.21
43681;BME280;29281;50.356;30.894;2023-06-22T04:32:41;100465.00;;;26.39;62.55
43681;BME280;29281;50.356;30.894;2023-06-22T04:33:44;100472.20;;;26.53;61.05
43681;BME280;29281;50.356;30.894;2023-06-22T04:34:49;100474.98;;;27.07;59.58
43681;BME280;29281;50.356;30.894;2023-06-22T04:35:53;100483.09;;;28.47;55.52
43681;BME280;29281;50.356;30.894;2023-06-22T04:36:56;100500.84;;;30.47;50.28
43681;BME280;29281;50.356;30.894;2023-06-22T04:38:01;100510.75;;;32.34;45.61
43681;BME280;29281;50.356;30.894;2023-06-22T04:39:08;100518.75;;;33.79;42.15
43681;BME280;29281;50.356;30.894;2023-06-22T04:40:12;100542.84;;;34.89;39.28
43681;BME280;29281;50.356;30.894;2023-06-22T04:41:17;100551.98;;;35.60;37.74
43681;BME280;29281;50.356;30.894;2023-06-22T04:42:27;100551.34;;;36.34;36.36
43681;BME280;29281;50.356;30.894;2023-06-22T04:43:33;100566.23;;;37.12;35.07
43681;BME280;29281;50.356;30.894;2023-06-22T04:44:37;100571.92;;;37.52;33.38
43681;BME280;29281;50.356;30.894;2023-06-22T04:45:39;100572.98;;;37.36;33.15
43681;BME280;29281;50.356;30.894;2023-06-22T04:46:43;100577.84;;;37.86;32.62
43681;BME280;29281;50.356;30.894;2023-06-22T04:47:46;100575.38;;;38.41;31.94
43681;BME280;29281;50.356;30.894;2023-06-22T04:48:51;100584.27;;;38.58;31.27
43681;BME280;29281;50.356;30.894;2023-06-22T04:49:54;100593.67;;;38.72;30.80
43681;BME280;29281;50.356;30.894;2023-06-22T04:51:01;100590.85;;;38.92;30.58
43681;BME280;29281;50.356;30.894;2023-06-22T04:52:07;100588.55;;;39.20;30.38
43681;BME280;29281;50.356;30.894;2023-06-22T04:53:12;100602.61;;;39.49;29.89
43681;BME280;29281;50.356;30.894;2023-06-22T04:54:17;100597.91;;;39.44;29.55
43681;BME280;29281;50.356;30.894;2023-06-22T04:55:21;100606.41;;;39.68;29.35
43681;BME280;29281;50.356;30.894;2023-06-22T04:56:25;100609.84;;;39.99;28.71
43681;BME280;29281;50.356;30.894;2023-06-22T04:57:30;100603.65;;;40.07;28.49
43681;BME280;29281;50.356;30.894;2023-06-22T04:58:36;100606.98;;;40.09;28.15
43681;BME280;29281;50.356;30.894;2023-06-22T04:59:41;100612.37;;;39.95;28.35
43681;BME280;29281;50.356;30.894;2023-06-22T05:00:45;100606.20;;;40.37;28.07
43681;BME280;29281;50.356;30.894;2023-06-22T05:01:51;100610.70;;;39.94;28.37
43681;BME280;29281;50.356;30.894;2023-06-22T05:02:58;100604.19;;;39.65;28.72
43681;BME280;29281;50.356;30.894;2023-06-22T05:04:03;100602.73;;;39.72;28.93
43681;BME280;29281;50.356;30.894;2023-06-22T05:05:10;100601.04;;;39.87;28.62
43681;BME280;29281;50.356;30.894;2023-06-22T05:06:17;100598.83;;;40.52;28.13
43681;BME280;29281;50.356;30.894;2023-06-22T05:07:20;100616.34;;;40.86;26.49
43681;BME280;29281;50.356;30.894;2023-06-22T05:08:24;100608.02;;;40.52;27.54
43681;BME280;29281;50.356;30.894;2023-06-22T05:09:31;100619.41;;;40.85;26.55
43681;BME280;29281;50.356;30.894;2023-06-22T05:10:36;100617.63;;;41.23;25.97
43681;BME280;29281;50.356;30.894;2023-06-22T05:11:41;100618.70;;;40.98;26.34
43681;BME280;29281;50.356;30.894;2023-06-22T05:12:50;100617.67;;;41.18;26.77
43681;BME280;29281;50.356;30.894;2023-06-22T05:13:58;100616.58;;;41.80;26.09
43681;BME280;29281;50.356;30.894;2023-06-22T05:15:00;100623.45;;;42.06;25.64
43681;BME280;29281;50.356;30.894;2023-06-22T05:16:04;100623.75;;;42.05;25.34
43681;BME280;29281;50.356;30.894;2023-06-22T05:17:10;100633.11;;;42.14;25.42
43681;BME280;29281;50.356;30.894;2023-06-22T05:18:17;100621.53;;;42.39;25.44
43681;BME280;29281;50.356;30.894;2023-06-22T05:19:20;100626.02;;;42.54;25.44
43681;BME280;29281;50.356;30.894;2023-06-22T05:20:24;100628.36;;;42.79;24.94
43681;BME280;29281;50.356;30.894;2023-06-22T05:21:27;100628.81;;;43.00;24.34
43681;BME280;29281;50.356;30.894;2023-06-22T05:22:31;100622.81;;;42.93;24.44
43681;BME280;29281;50.356;30.894;2023-06-22T05:23:37;100630.16;;;43.03;24.58
43681;BME280;29281;50.356;30.894;2023-06-22T05:24:43;100625.82;;;43.24;24.43
43681;BME280;29281;50.356;30.894;2023-06-22T05:25:50;100630.40;;;43.20;23.94
43681;BME280;29281;50.356;30.894;2023-06-22T05:26:54;100629.57;;;43.20;23.54
43681;BME280;29281;50.356;30.894;2023-06-22T05:27:59;100628.41;;;42.93;23.38
43681;BME280;29281;50.356;30.894;2023-06-22T05:29:02;100631.90;;;42.85;23.74
43681;BME280;29281;50.356;30.894;2023-06-22T05:30:06;100626.14;;;41.74;24.45
43681;BME280;29281;50.356;30.894;2023-06-22T05:31:11;100621.73;;;41.49;24.90
43681;BME280;29281;50.356;30.894;2023-06-22T05:32:23;100624.05;;;41.85;24.72
43681;BME280;29281;50.356;30.894;2023-06-22T05:33:28;100620.86;;;42.29;24.45
43681;BME280;29281;50.356;30.894;2023-06-22T05:34:32;100627.69;;;42.36;24.13
43681;BME280;29281;50.356;30.894;2023-06-22T05:35:34;100619.30;;;41.66;25.19
43681;BME280;29281;50.356;30.894;2023-06-22T05:36:40;100619.44;;;41.75;24.96
43681;BME280;29281;50.356;30.894;2023-06-22T05:37:45;100617.56;;;42.08;25.06
43681;BME280;29281;50.356;30.894;2023-06-22T05:38:49;100614.16;;;41.31;25.16
43681;BME280;29281;50.356;30.894;2023-06-22T05:39:55;100613.96;;;40.98;25.97